sensor_id;sensor_type;location;lat;lon;timestamp;temperature;humidity
4828;DHT22;2428;48.732;9.148;2023-03-01T00:02:20;0.30;99.90
4828;DHT22;2428;48.732;9.148;2023-03-01T00:04:46;0.30;99.90
4828;DHT22;2428;48.732;9.148;2023-03-01T00:07:12;0.30;99.90
4828;DHT22;2428;48.732;9.148;2023-03-01T00:09:37;0.20;99.90
4828;DHT22;2428;48.732;9.148;2023-03-01T00:12:03;0.20;99.90
4828;DHT22;2428;48.732;9.148;2023-03-01T00:14:29;0.20;99.90
4828;DHT22;2428;48.732;9.148;2023-03-01T00:16:55;0.20;99.90
4828;DHT22;2428;48.732;9.148;2023-03-01T00:19:21;0.20;99.90
4828;DHT22;2428;48.732;9.148;2023-03-01T00:21:47;0.20;99.90
4828;DHT22;2428;48.732;9.148;2023-03-01T00:24:14;0.10;99.90
4828;DHT22;2428;48.732;9.148;2023-03-01T00:26:39;0.10;99.90
4828;DHT22;2428;48.732;9.148;2023-03-01T00:29:05;0.00;99.90
4828;DHT22;2428;48.732;9.148;2023-03-01T00:31:32;0.00;99.90
4828;DHT22;2428;48.732;9.148;2023-03-01T00:34:00;-0.10;99.90
4828;DHT22;2428;48.732;9.148;2023-03-01T00:36:29;-0.10;99.90
4828;DHT22;2428;48.732;9.148;2023-03-01T00:38:55;-0.10;99.90
4828;DHT22;2428;48.732;9.148;2023-03-01T00:41:21;-0.10;99.90
4828;DHT22;2428;48.732;9.148;2023-03-01T00:43:48;-0.10;99.90
4828;DHT22;2428;48.732;9.148;2023-03-01T00:46:17;-0.10;99.90
4828;DHT22;2428;48.732;9.148;2023-03-01T00:48:43;-0.10;99.90
4828;DHT22;2428;48.732;9.148;2023-03-01T00:51:13;-0.20;99.90
4828;DHT22;2428;48.732;9.148;2023-03-01T00:53:39;-0.20;99.90
4828;DHT22;2428;48.732;9.148;2023-03-01T00:56:06;-0.20;99.90
4828;DHT22;2428;48.732;9.148;2023-03-01T00:58:33;-0.20;99.90
4828;DHT22;2428;48.732;9.148;2023-03-01T01:00:59;-0.20;99.90
4828;DHT22;2428;48.732;9.148;2023-03-01T01:03:24;-0.20;99.90
4828;DHT22;2428;48.732;9.148;2023-03-01T01:05:51;-0.30;99.90
4828;DHT22;2428;48.732;9.148;2023-03-01T01:08:17;-0.30;99.90
4828;DHT22;2428;48.732;9.148;2023-03-01T01:10:44;-0.40;99.90
4828;DHT22;2428;48.732;9.148;2023-03-01T01:13:09;-0.40;99.90
4828;DHT22;2428;48.732;9.148;2023-03-01T01:15:36;-0.40;99.90
4828;DHT22;2428;48.732;9.148;2023-03-01T01:18:02;-0.40;99.90
4828;DHT22;2428;48.732;9.148;2023-03-01T01:20:27;-0.40;99.90
4828;DHT22;2428;48.732;9.148;2023-03-01T01:22:53;-0.40;99.90
4828;DHT22;2428;48.732;9.148;2023-03-01T01:25:19;-0.30;99.90
4828;DHT22;2428;48.732;9.148;2023-03-01T01:27:44;-0.30;99.90
4828;DHT22;2428;48.732;9.148;2023-03-01T01:30:11;-0.30;99.90
4828;DHT22;2428;48.732;9.148;2023-03-01T01:32:36;-0.20;99.90
4828;DHT22;2428;48.732;9.148;2023-03-01T01:35:02;-0.20;99.90
4828;DHT22;2428;48.732;9.148;2023-03-01T01:37:28;-0.20;99.90
4828;DHT22;2428;48.732;9.148;2023-03-01T01:40:00;-0.20;99.90
4828;DHT22;2428;48.732;9.148;2023-03-01T01:42:28;-0.30;99.90
4828;DHT22;2428;48.732;9.148;2023-03-01T01:47:52;-0.40;99.90
4828;DHT22;2428;48.732;9.148;2023-03-01T01:50:18;-0.40;99.90
4828;DHT22;2428;48.732;9.148;2023-03-01T01:52:45;-0.40;99.90
4828;DHT22;2428;48.732;9.148;2023-03-01T01:55:18;-0.40;99.90
4828;DHT22;2428;48.732;9.148;2023-03-01T01:57:49;-0.40;99.90
4828;DHT22;2428;48.732;9.148;2023-03-01T02:00:20;-0.50;99.90
4828;DHT22;2428;48.732;9.148;2023-03-01T02:02:50;-0.40;99.90
4828;DHT22;2428;48.732;9.148;2023-03-01T02:05:51;-0.40;99.90
4828;DHT22;2428;48.732;9.148;2023-03-01T02:08:20;-0.40;99.90
4828;DHT22;2428;48.732;9.148;2023-03-01T02:10:48;-0.30;99.90
4828;DHT22;2428;48.732;9.148;2023-03-01T02:13:14;-0.30;99.90
4828;DHT22;2428;48.732;9.148;2023-03-01T02:15:40;-0.30;99.90
4828;DHT22;2428;48.732;9.148;2023-03-01T02:18:07;-0.30;99.90
4828;DHT22;2428;48.732;9.148;2023-03-01T02:23:36;-0.30;99.90
4828;DHT22;2428;48.732;9.148;2023-03-01T02:26:06;-0.30;99.90
4828;DHT22;2428;48.732;9.148;2023-03-01T02:28:37;-0.30;99.90
4828;DHT22;2428;48.732;9.148;2023-03-01T02:31:05;-0.30;99.90
4828;DHT22;2428;48.732;9.148;2023-03-01T02:33:51;-0.30;99.90
4828;DHT22;2428;48.732;9.148;2023-03-01T02:36:24;-0.30;99.90
4828;DHT22;2428;48.732;9.148;2023-03-01T02:38:54;-0.20;99.90
4828;DHT22;2428;48.732;9.148;2023-03-01T02:41:22;-0.20;99.90
4828;DHT22;2428;48.732;9.148;2023-03-01T02:43:48;-0.20;99.90
4828;DHT22;2428;48.732;9.148;2023-03-01T02:46:17;-0.10;99.90
4828;DHT22;2428;48.732;9.148;2023-03-01T02:48:48;-0.10;99.90
4828;DHT22;2428;48.732;9.148;2023-03-01T02:56:49;0.00;99.90
4828;DHT22;2428;48.732;9.148;2023-03-01T02:59:21;0.00;99.90
4828;DHT22;2428;48.732;9.148;2023-03-01T03:01:47;0.00;99.90
4828;DHT22;2428;48.732;9.148;2023-03-01T03:04:17;0.00;99.90
4828;DHT22;2428;48.732;9.148;2023-03-01T03:06:48;0.00;99.90
4828;DHT22;2428;48.732;9.148;2023-03-01T03:09:15;0.00;99.90
4828;DHT22;2428;48.732;9.148;2023-03-01T03:11:41;0.10;99.90
4828;DHT22;2428;48.732;9.148;2023-03-01T03:14:09;0.10;99.90
4828;DHT22;2428;48.732;9.148;2023-03-01T03:16:44;0.10;99.90
4828;DHT22;2428;48.732;9.148;2023-03-01T03:19:10;0.10;99.90
4828;DHT22;2428;48.732;9.148;2023-03-01T03:21:36;0.10;99.90
4828;DHT22;2428;48.732;9.148;2023-03-01T03:24:03;0.20;99.90
4828;DHT22;2428;48.732;9.148;2023-03-01T03:26:29;0.10;99.90
4828;DHT22;2428;48.732;9.148;2023-03-01T03:28:54;0.10;99.90
4828;DHT22;2428;48.732;9.148;2023-03-01T03:31:20;0.20;99.90
4828;DHT22;2428;48.732;9.148;2023-03-01T03:33:46;0.10;99.90
4828;DHT22;2428;48.732;9.148;2023-03-01T03:36:20;0.10;99.90
4828;DHT22;2428;48.732;9.148;2023-03-01T03:38:46;0.10;99.90
4828;DHT22;2428;48.732;9.148;2023-03-01T03:41:12;0.10;99.90
4828;DHT22;2428;48.732;9.148;2023-03-01T03:43:39;0.10;99.90
4828;DHT22;2428;48.732;9.148;2023-03-01T03:46:06;0.10;99.90
4828;DHT22;2428;48.732;9.148;2023-03-01T03:48:39;0.10;99.90
4828;DHT22;2428;48.732;9.148;2023-03-01T03:51:05;0.10;99.90
4828;DHT22;2428;48.732;9.148;2023-03-01T03:53:31;0.10;99.90
4828;DHT22;2428;48.732;9.148;2023-03-01T03:55:57;0.10;99.90
4828;DHT22;2428;48.732;9.148;2023-03-01T03:58:24;0.10;99.90
4828;DHT22;2428;48.732;9.148;2023-03-01T04:00:54;0.10;99.90
4828;DHT22;2428;48.732;9.148;2023-03-01T04:03:25;0.20;99.90
4828;DHT22;2428;48.732;9.148;2023-03-01T04:05:52;0.20;99.90
4828;DHT22;2428;48.732;9.148;2023-03-01T04:08:20;0.20;99.90
4828;DHT22;2428;48.732;9.148;2023-03-01T04:10:51;0.20;99.90
4828;DHT22;2428;48.732;9.148;2023-03-01T04:13:20;0.20;99.90
4828;DHT22;2428;48.732;9.148;2023-03-01T04:15:48;0.20;99.90
4828;DHT22;2428;48.732;9.148;2023-03-01T04:18:15;0.20;99.90
4828;DHT22;2428;48.732;9.148;2023-03-01T04:20:42;0.20;99.90
4828;DHT22;2428;48.732;9.148;2023-03-01T04:23:11;0.20;99.90
4828;DHT22;2428;48.732;9.148;2023-03-01T04:30:54;0.20;99.90
4828;DHT22;2428;48.732;9.148;2023-03-01T04:33:21;0.20;99.90
4828;DHT22;2428;48.732;9.148;2023-03-01T04:35:47;0.20;99.90
4828;DHT22;2428;48.732;9.148;2023-03-01T04:38:16;0.30;99.90
4828;DHT22;2428;48.732;9.148;2023-03-01T04:40:42;0.30;99.90
4828;DHT22;2428;48.732;9.148;2023-03-01T04:43:08;0.30;99.90
4828;DHT22;2428;48.732;9.148;2023-03-01T04:45:34;0.30;99.90
4828;DHT22;2428;48.732;9.148;2023-03-01T04:48:00;0.30;99.90
4828;DHT22;2428;48.732;9.148;2023-03-01T04:50:25;0.30;99.90
4828;DHT22;2428;48.732;9.148;2023-03-01T04:52:51;0.30;99.90
4828;DHT22;2428;48.732;9.148;2023-03-01T04:55:17;0.30;99.90
4828;DHT22;2428;48.732;9.148;2023-03-01T04:57:43;0.30;99.90
4828;DHT22;2428;48.732;9.148;2023-03-01T05:00:14;0.20;99.90
4828;DHT22;2428;48.732;9.148;2023-03-01T05:05:13;0.20;99.90
4828;DHT22;2428;48.732;9.148;2023-03-01T05:07:39;0.20;99.90
4828;DHT22;2428;48.732;9.148;2023-03-01T05:10:05;0.10;99.90
4828;DHT22;2428;48.732;9.148;2023-03-01T05:12:30;0.10;99.90
4828;DHT22;2428;48.732;9.148;2023-03-01T05:14:56;0.20;99.90
4828;DHT22;2428;48.732;9.148;2023-03-01T05:17:21;0.20;99.90
4828;DHT22;2428;48.732;9.148;2023-03-01T05:19:47;0.20;99.90
4828;DHT22;2428;48.732;9.148;2023-03-01T05:22:12;0.20;99.90
4828;DHT22;2428;48.732;9.148;2023-03-01T05:24:38;0.30;99.90
4828;DHT22;2428;48.732;9.148;2023-03-01T05:27:04;0.30;99.90
4828;DHT22;2428;48.732;9.148;2023-03-01T05:29:31;0.30;99.90
4828;DHT22;2428;48.732;9.148;2023-03-01T05:32:01;0.40;99.90
4828;DHT22;2428;48.732;9.148;2023-03-01T05:34:35;0.40;99.90
4828;DHT22;2428;48.732;9.148;2023-03-01T05:37:02;0.40;99.90
4828;DHT22;2428;48.732;9.148;2023-03-01T05:39:29;0.40;99.90
4828;DHT22;2428;48.732;9.148;2023-03-01T05:41:56;0.50;99.90
4828;DHT22;2428;48.732;9.148;2023-03-01T05:44:22;0.50;99.90
4828;DHT22;2428;48.732;9.148;2023-03-01T05:46:48;0.50;99.90
4828;DHT22;2428;48.732;9.148;2023-03-01T05:49:15;0.50;99.90
4828;DHT22;2428;48.732;9.148;2023-03-01T05:51:41;0.50;99.90
4828;DHT22;2428;48.732;9.148;2023-03-01T05:54:08;0.50;99.90
4828;DHT22;2428;48.732;9.148;2023-03-01T05:56:34;0.50;99.90
4828;DHT22;2428;48.732;9.148;2023-03-01T05:59:01;0.60;99.90
4828;DHT22;2428;48.732;9.148;2023-03-01T06:01:27;0.60;99.90
4828;DHT22;2428;48.732;9.148;2023-03-01T06:03:53;0.60;99.90
4828;DHT22;2428;48.732;9.148;2023-03-01T06:06:18;0.70;99.90
4828;DHT22;2428;48.732;9.148;2023-03-01T06:08:44;0.60;99.90
4828;DHT22;2428;48.732;9.148;2023-03-01T06:11:09;0.70;99.90
4828;DHT22;2428;48.732;9.148;2023-03-01T06:13:35;0.60;99.90
4828;DHT22;2428;48.732;9.148;2023-03-01T06:16:07;0.70;99.90
4828;DHT22;2428;48.732;9.148;2023-03-01T06:18:33;0.60;99.90
4828;DHT22;2428;48.732;9.148;2023-03-01T06:20:58;0.70;99.90
4828;DHT22;2428;48.732;9.148;2023-03-01T06:23:24;0.70;99.90
4828;DHT22;2428;48.732;9.148;2023-03-01T06:25:50;0.70;99.90
4828;DHT22;2428;48.732;9.148;2023-03-01T06:28:16;0.70;99.90
4828;DHT22;2428;48.732;9.148;2023-03-01T06:30:41;0.70;99.90
4828;DHT22;2428;48.732;9.148;2023-03-01T06:33:07;0.70;99.90
4828;DHT22;2428;48.732;9.148;2023-03-01T06:35:33;0.70;99.90
4828;DHT22;2428;48.732;9.148;2023-03-01T06:38:00;0.70;99.90
4828;DHT22;2428;48.732;9.148;2023-03-01T06:40:27;0.70;99.90
4828;DHT22;2428;48.732;9.148;2023-03-01T06:42:52;0.80;99.90
4828;DHT22;2428;48.732;9.148;2023-03-01T06:45:19;0.80;99.90
4828;DHT22;2428;48.732;9.148;2023-03-01T06:47:45;0.80;99.90
4828;DHT22;2428;48.732;9.148;2023-03-01T06:50:12;0.80;99.90
4828;DHT22;2428;48.732;9.148;2023-03-01T06:52:38;0.80;99.90
4828;DHT22;2428;48.732;9.148;2023-03-01T06:55:04;0.90;99.90
4828;DHT22;2428;48.732;9.148;2023-03-01T06:57:30;0.90;99.90
4828;DHT22;2428;48.732;9.148;2023-03-01T06:59:56;0.90;99.90
4828;DHT22;2428;48.732;9.148;2023-03-01T07:02:21;0.90;99.90
4828;DHT22;2428;48.732;9.148;2023-03-01T07:04:49;0.90;99.90
4828;DHT22;2428;48.732;9.148;2023-03-01T07:07:15;1.00;99.90
4828;DHT22;2428;48.732;9.148;2023-03-01T07:09:43;1.00;99.90
4828;DHT22;2428;48.732;9.148;2023-03-01T07:12:09;1.00;99.90
4828;DHT22;2428;48.732;9.148;2023-03-01T07:14:34;0.90;99.90
4828;DHT22;2428;48.732;9.148;2023-03-01T07:17:00;0.90;99.90
4828;DHT22;2428;48.732;9.148;2023-03-01T07:19:26;1.00;99.90
4828;DHT22;2428;48.732;9.148;2023-03-01T07:21:51;0.90;99.90
4828;DHT22;2428;48.732;9.148;2023-03-01T07:24:17;0.90;99.90
4828;DHT22;2428;48.732;9.148;2023-03-01T07:26:43;0.90;99.90
4828;DHT22;2428;48.732;9.148;2023-03-01T07:29:10;0.90;99.90
4828;DHT22;2428;48.732;9.148;2023-03-01T07:31:35;0.80;99.90
4828;DHT22;2428;48.732;9.148;2023-03-01T07:34:02;0.80;99.90
4828;DHT22;2428;48.732;9.148;2023-03-01T07:36:28;0.90;99.90
4828;DHT22;2428;48.732;9.148;2023-03-01T07:38:54;0.90;99.90
4828;DHT22;2428;48.732;9.148;2023-03-01T07:41:21;1.00;99.90
4828;DHT22;2428;48.732;9.148;2023-03-01T07:43:46;1.00;99.90
4828;DHT22;2428;48.732;9.148;2023-03-01T07:46:12;1.00;99.90
4828;DHT22;2428;48.732;9.148;2023-03-01T07:48:38;1.10;99.90
4828;DHT22;2428;48.732;9.148;2023-03-01T07:51:07;1.10;99.90
4828;DHT22;2428;48.732;9.148;2023-03-01T07:53:33;1.20;99.90
4828;DHT22;2428;48.732;9.148;2023-03-01T07:56:12;1.20;99.90
4828;DHT22;2428;48.732;9.148;2023-03-01T07:58:40;1.20;99.90
4828;DHT22;2428;48.732;9.148;2023-03-01T08:01:08;1.30;99.90
4828;DHT22;2428;48.732;9.148;2023-03-01T08:03:35;1.30;99.90
4828;DHT22;2428;48.732;9.148;2023-03-01T08:06:02;1.40;99.90
4828;DHT22;2428;48.732;9.148;2023-03-01T08:08:28;1.40;99.90
4828;DHT22;2428;48.732;9.148;2023-03-01T08:11:04;1.40;99.90
4828;DHT22;2428;48.732;9.148;2023-03-01T08:13:33;1.50;99.90
4828;DHT22;2428;48.732;9.148;2023-03-01T08:16:04;1.50;99.90
4828;DHT22;2428;48.732;9.148;2023-03-01T08:18:30;1.50;99.90
4828;DHT22;2428;48.732;9.148;2023-03-01T08:20:55;1.50;99.90
4828;DHT22;2428;48.732;9.148;2023-03-01T08:23:21;1.60;99.90
4828;DHT22;2428;48.732;9.148;2023-03-01T08:25:47;1.70;99.90
4828;DHT22;2428;48.732;9.148;2023-03-01T08:28:12;1.70;99.90
4828;DHT22;2428;48.732;9.148;2023-03-01T08:30:38;1.70;99.90
4828;DHT22;2428;48.732;9.148;2023-03-01T08:33:03;1.80;99.90
4828;DHT22;2428;48.732;9.148;2023-03-01T08:35:29;1.80;99.90
4828;DHT22;2428;48.732;9.148;2023-03-01T08:37:54;1.90;99.90
4828;DHT22;2428;48.732;9.148;2023-03-01T08:40:20;1.90;99.90
4828;DHT22;2428;48.732;9.148;2023-03-01T08:42:45;2.00;99.90
4828;DHT22;2428;48.732;9.148;2023-03-01T08:45:11;2.00;99.90
4828;DHT22;2428;48.732;9.148;2023-03-01T08:47:37;2.00;99.90
4828;DHT22;2428;48.732;9.148;2023-03-01T08:50:04;2.10;99.90
4828;DHT22;2428;48.732;9.148;2023-03-01T08:52:30;2.10;99.90
4828;DHT22;2428;48.732;9.148;2023-03-01T08:54:57;2.20;99.90
4828;DHT22;2428;48.732;9.148;2023-03-01T08:57:22;2.30;99.90
4828;DHT22;2428;48.732;9.148;2023-03-01T08:59:48;2.40;99.90
4828;DHT22;2428;48.732;9.148;2023-03-01T09:02:15;2.40;99.90
4828;DHT22;2428;48.732;9.148;2023-03-01T09:04:42;2.50;99.90
4828;DHT22;2428;48.732;9.148;2023-03-01T09:07:10;2.60;99.90
4828;DHT22;2428;48.732;9.148;2023-03-01T09:09:37;2.70;99.90
4828;DHT22;2428;48.732;9.148;2023-03-01T09:12:03;2.70;99.90
4828;DHT22;2428;48.732;9.148;2023-03-01T09:14:29;2.80;99.90
4828;DHT22;2428;48.732;9.148;2023-03-01T09:16:55;2.90;99.90
4828;DHT22;2428;48.732;9.148;2023-03-01T09:19:20;3.00;99.90
4828;DHT22;2428;48.732;9.148;2023-03-01T09:21:46;3.00;99.90
4828;DHT22;2428;48.732;9.148;2023-03-01T09:24:19;3.10;99.90
4828;DHT22;2428;48.732;9.148;2023-03-01T09:26:45;3.20;99.90
4828;DHT22;2428;48.732;9.148;2023-03-01T09:29:12;3.30;99.90
4828;DHT22;2428;48.732;9.148;2023-03-01T09:31:38;3.40;99.90
4828;DHT22;2428;48.732;9.148;2023-03-01T09:34:04;3.40;99.90
4828;DHT22;2428;48.732;9.148;2023-03-01T09:36:30;3.40;99.90
4828;DHT22;2428;48.732;9.148;2023-03-01T09:38:57;3.60;99.90
4828;DHT22;2428;48.732;9.148;2023-03-01T09:41:48;3.50;99.90
4828;DHT22;2428;48.732;9.148;2023-03-01T09:44:40;3.60;99.90
4828;DHT22;2428;48.732;9.148;2023-03-01T09:47:26;3.70;99.90
4828;DHT22;2428;48.732;9.148;2023-03-01T09:50:21;3.70;99.90
4828;DHT22;2428;48.732;9.148;2023-03-01T09:53:09;4.00;99.90
4828;DHT22;2428;48.732;9.148;2023-03-01T09:55:40;4.20;99.90
4828;DHT22;2428;48.732;9.148;2023-03-01T10:00:54;5.40;99.90
4828;DHT22;2428;48.732;9.148;2023-03-01T10:03:42;6.40;99.90
4828;DHT22;2428;48.732;9.148;2023-03-01T10:06:19;6.80;99.90
4828;DHT22;2428;48.732;9.148;2023-03-01T10:11:23;7.90;99.90
4828;DHT22;2428;48.732;9.148;2023-03-01T10:14:03;7.50;99.90
4828;DHT22;2428;48.732;9.148;2023-03-01T10:19:01;6.30;99.90
4828;DHT22;2428;48.732;9.148;2023-03-01T10:21:28;5.90;99.90
4828;DHT22;2428;48.732;9.148;2023-03-01T10:24:01;5.70;99.90
4828;DHT22;2428;48.732;9.148;2023-03-01T10:26:48;5.20;99.90
4828;DHT22;2428;48.732;9.148;2023-03-01T10:29:22;5.10;99.90
4828;DHT22;2428;48.732;9.148;2023-03-01T10:31:51;4.90;99.90
4828;DHT22;2428;48.732;9.148;2023-03-01T10:34:36;5.00;99.90
4828;DHT22;2428;48.732;9.148;2023-03-01T10:37:22;5.10;99.90
4828;DHT22;2428;48.732;9.148;2023-03-01T10:40:03;5.10;99.90
4828;DHT22;2428;48.732;9.148;2023-03-01T10:42:48;5.10;99.90
4828;DHT22;2428;48.732;9.148;2023-03-01T10:50:30;5.00;99.90
4828;DHT22;2428;48.732;9.148;2023-03-01T10:53:02;5.00;99.90
4828;DHT22;2428;48.732;9.148;2023-03-01T11:00:54;5.10;99.90
4828;DHT22;2428;48.732;9.148;2023-03-01T11:03:36;5.20;99.90
4828;DHT22;2428;48.732;9.148;2023-03-01T11:08:45;5.30;99.90
4828;DHT22;2428;48.732;9.148;2023-03-01T11:11:31;5.20;99.90
4828;DHT22;2428;48.732;9.148;2023-03-01T11:16:34;5.30;99.90
4828;DHT22;2428;48.732;9.148;2023-03-01T11:24:44;5.30;99.90
4828;DHT22;2428;48.732;9.148;2023-03-01T11:27:32;5.30;99.90
4828;DHT22;2428;48.732;9.148;2023-03-01T11:30:12;5.30;99.90
4828;DHT22;2428;48.732;9.148;2023-03-01T11:35:35;5.40;99.90
4828;DHT22;2428;48.732;9.148;2023-03-01T11:38:23;5.50;99.90
4828;DHT22;2428;48.732;9.148;2023-03-01T11:40:57;5.60;99.90
4828;DHT22;2428;48.732;9.148;2023-03-01T11:44:03;5.70;99.90
4828;DHT22;2428;48.732;9.148;2023-03-01T11:54:34;5.70;99.90
4828;DHT22;2428;48.732;9.148;2023-03-01T12:00:05;5.50;99.90
4828;DHT22;2428;48.732;9.148;2023-03-01T12:06:04;5.60;99.90
4828;DHT22;2428;48.732;9.148;2023-03-01T12:08:49;5.70;99.90
4828;DHT22;2428;48.732;9.148;2023-03-01T12:11:39;5.90;99.90
4828;DHT22;2428;48.732;9.148;2023-03-01T12:20:05;6.00;99.90
4828;DHT22;2428;48.732;9.148;2023-03-01T12:36:48;5.90;99.90
4828;DHT22;2428;48.732;9.148;2023-03-01T12:44:38;6.00;99.90
4828;DHT22;2428;48.732;9.148;2023-03-01T12:49:49;6.00;99.90
4828;DHT22;2428;48.732;9.148;2023-03-01T12:52:29;6.00;99.90
4828;DHT22;2428;48.732;9.148;2023-03-01T12:55:00;6.10;99.90
4828;DHT22;2428;48.732;9.148;2023-03-01T12:57:39;6.10;99.90
4828;DHT22;2428;48.732;9.148;2023-03-01T13:11:01;6.30;99.90
4828;DHT22;2428;48.732;9.148;2023-03-01T13:13:28;6.40;99.90
4828;DHT22;2428;48.732;9.148;2023-03-01T13:15:54;6.40;99.90
4828;DHT22;2428;48.732;9.148;2023-03-01T13:20:50;6.40;99.90
4828;DHT22;2428;48.732;9.148;2023-03-01T13:30:57;6.40;99.90
4828;DHT22;2428;48.732;9.148;2023-03-01T13:35:49;6.40;99.90
4828;DHT22;2428;48.732;9.148;2023-03-01T13:46:51;6.60;99.90
4828;DHT22;2428;48.732;9.148;2023-03-01T13:49:23;6.60;99.90
4828;DHT22;2428;48.732;9.148;2023-03-01T13:51:50;6.70;99.90
4828;DHT22;2428;48.732;9.148;2023-03-01T13:54:29;6.70;99.90
4828;DHT22;2428;48.732;9.148;2023-03-01T13:56:57;6.70;99.90
4828;DHT22;2428;48.732;9.148;2023-03-01T13:59:23;6.70;99.90
4828;DHT22;2428;48.732;9.148;2023-03-01T14:01:59;6.70;99.90
4828;DHT22;2428;48.732;9.148;2023-03-01T14:07:09;6.70;99.90
4828;DHT22;2428;48.732;9.148;2023-03-01T14:09:40;6.70;99.90
4828;DHT22;2428;48.732;9.148;2023-03-01T14:14:44;6.60;99.90
4828;DHT22;2428;48.732;9.148;2023-03-01T14:17:29;6.50;99.90
4828;DHT22;2428;48.732;9.148;2023-03-01T14:20:03;6.60;99.90
4828;DHT22;2428;48.732;9.148;2023-03-01T14:22:35;6.60;99.90
4828;DHT22;2428;48.732;9.148;2023-03-01T14:25:15;6.60;99.90
4828;DHT22;2428;48.732;9.148;2023-03-01T14:27:42;6.60;99.90
4828;DHT22;2428;48.732;9.148;2023-03-01T14:30:14;6.50;99.90
4828;DHT22;2428;48.732;9.148;2023-03-01T14:32:41;6.50;99.90
4828;DHT22;2428;48.732;9.148;2023-03-01T14:35:21;6.50;99.90
4828;DHT22;2428;48.732;9.148;2023-03-01T14:37:47;6.50;99.90
4828;DHT22;2428;48.732;9.148;2023-03-01T14:40:41;6.50;99.90
4828;DHT22;2428;48.732;9.148;2023-03-01T14:43:13;6.50;99.90
4828;DHT22;2428;48.732;9.148;2023-03-01T14:45:47;6.50;99.90
4828;DHT22;2428;48.732;9.148;2023-03-01T14:48:14;6.50;99.90
4828;DHT22;2428;48.732;9.148;2023-03-01T14:50:42;6.50;99.90
4828;DHT22;2428;48.732;9.148;2023-03-01T14:53:19;6.50;99.90
4828;DHT22;2428;48.732;9.148;2023-03-01T14:55:48;6.60;99.90
4828;DHT22;2428;48.732;9.148;2023-03-01T14:58:19;6.60;99.90
4828;DHT22;2428;48.732;9.148;2023-03-01T15:03:31;6.60;99.90
4828;DHT22;2428;48.732;9.148;2023-03-01T15:06:00;6.60;99.90
4828;DHT22;2428;48.732;9.148;2023-03-01T15:08:26;6.70;99.90
4828;DHT22;2428;48.732;9.148;2023-03-01T15:11:15;6.80;99.90
4828;DHT22;2428;48.732;9.148;2023-03-01T15:13:42;6.90;99.90
4828;DHT22;2428;48.732;9.148;2023-03-01T15:16:09;7.10;99.90
4828;DHT22;2428;48.732;9.148;2023-03-01T15:18:36;7.10;99.90
4828;DHT22;2428;48.732;9.148;2023-03-01T15:21:08;7.20;99.90
4828;DHT22;2428;48.732;9.148;2023-03-01T15:23:36;7.30;99.90
4828;DHT22;2428;48.732;9.148;2023-03-01T15:26:03;7.30;99.90
4828;DHT22;2428;48.732;9.148;2023-03-01T15:28:34;7.40;99.90
4828;DHT22;2428;48.732;9.148;2023-03-01T15:31:23;7.40;99.90
4828;DHT22;2428;48.732;9.148;2023-03-01T15:33:49;7.40;99.90
4828;DHT22;2428;48.732;9.148;2023-03-01T15:38:58;7.10;99.90
4828;DHT22;2428;48.732;9.148;2023-03-01T15:41:37;7.00;99.90
4828;DHT22;2428;48.732;9.148;2023-03-01T15:44:30;6.90;99.90
4828;DHT22;2428;48.732;9.148;2023-03-01T15:46:57;6.90;99.90
4828;DHT22;2428;48.732;9.148;2023-03-01T15:49:40;6.80;99.90
4828;DHT22;2428;48.732;9.148;2023-03-01T15:52:14;6.80;99.90
4828;DHT22;2428;48.732;9.148;2023-03-01T15:54:41;6.80;99.90
4828;DHT22;2428;48.732;9.148;2023-03-01T15:57:13;6.70;99.90
4828;DHT22;2428;48.732;9.148;2023-03-01T15:59:41;6.70;99.90
4828;DHT22;2428;48.732;9.148;2023-03-01T16:02:10;6.60;99.90
4828;DHT22;2428;48.732;9.148;2023-03-01T16:04:38;6.60;99.90
4828;DHT22;2428;48.732;9.148;2023-03-01T16:07:03;6.50;99.90
4828;DHT22;2428;48.732;9.148;2023-03-01T16:09:29;6.40;99.90
4828;DHT22;2428;48.732;9.148;2023-03-01T16:11:55;6.40;99.90
4828;DHT22;2428;48.732;9.148;2023-03-01T16:14:21;6.40;99.90
4828;DHT22;2428;48.732;9.148;2023-03-01T16:16:47;6.30;99.90
4828;DHT22;2428;48.732;9.148;2023-03-01T16:19:14;6.20;99.90
4828;DHT22;2428;48.732;9.148;2023-03-01T16:21:40;6.20;99.90
4828;DHT22;2428;48.732;9.148;2023-03-01T16:24:06;6.20;99.90
4828;DHT22;2428;48.732;9.148;2023-03-01T16:26:32;6.10;99.90
4828;DHT22;2428;48.732;9.148;2023-03-01T16:28:58;6.10;99.90
4828;DHT22;2428;48.732;9.148;2023-03-01T16:31:24;6.10;99.90
4828;DHT22;2428;48.732;9.148;2023-03-01T16:33:53;6.00;99.90
4828;DHT22;2428;48.732;9.148;2023-03-01T16:36:20;6.00;99.90
4828;DHT22;2428;48.732;9.148;2023-03-01T16:38:46;5.90;99.90
4828;DHT22;2428;48.732;9.148;2023-03-01T16:41:15;5.90;99.90
4828;DHT22;2428;48.732;9.148;2023-03-01T16:43:41;5.90;99.90
4828;DHT22;2428;48.732;9.148;2023-03-01T16:46:27;5.90;99.90
4828;DHT22;2428;48.732;9.148;2023-03-01T16:48:54;5.90;99.90
4828;DHT22;2428;48.732;9.148;2023-03-01T16:51:20;5.90;99.90
4828;DHT22;2428;48.732;9.148;2023-03-01T16:53:47;5.80;99.90
4828;DHT22;2428;48.732;9.148;2023-03-01T16:56:13;5.80;99.90
4828;DHT22;2428;48.732;9.148;2023-03-01T16:58:39;5.70;99.90
4828;DHT22;2428;48.732;9.148;2023-03-01T17:01:10;5.70;99.90
4828;DHT22;2428;48.732;9.148;2023-03-01T17:03:37;5.70;99.90
4828;DHT22;2428;48.732;9.148;2023-03-01T17:06:05;5.70;99.90
4828;DHT22;2428;48.732;9.148;2023-03-01T17:08:31;5.60;99.90
4828;DHT22;2428;48.732;9.148;2023-03-01T17:11:06;5.60;99.90
4828;DHT22;2428;48.732;9.148;2023-03-01T17:13:32;5.60;99.90
4828;DHT22;2428;48.732;9.148;2023-03-01T17:15:57;5.50;99.90
4828;DHT22;2428;48.732;9.148;2023-03-01T17:18:23;5.50;99.90
4828;DHT22;2428;48.732;9.148;2023-03-01T17:20:49;5.40;99.90
4828;DHT22;2428;48.732;9.148;2023-03-01T17:23:15;5.40;99.90
4828;DHT22;2428;48.732;9.148;2023-03-01T17:25:44;5.30;99.90
4828;DHT22;2428;48.732;9.148;2023-03-01T17:28:11;5.30;99.90
4828;DHT22;2428;48.732;9.148;2023-03-01T17:30:38;5.30;99.90
4828;DHT22;2428;48.732;9.148;2023-03-01T17:33:06;5.30;99.90
4828;DHT22;2428;48.732;9.148;2023-03-01T17:35:31;5.30;99.90
4828;DHT22;2428;48.732;9.148;2023-03-01T17:38:01;5.20;99.90
4828;DHT22;2428;48.732;9.148;2023-03-01T17:40:27;5.20;99.90
4828;DHT22;2428;48.732;9.148;2023-03-01T17:42:52;5.20;99.90
4828;DHT22;2428;48.732;9.148;2023-03-01T17:45:18;5.20;99.90
4828;DHT22;2428;48.732;9.148;2023-03-01T17:47:44;5.10;99.90
4828;DHT22;2428;48.732;9.148;2023-03-01T17:50:10;5.00;99.90
4828;DHT22;2428;48.732;9.148;2023-03-01T17:52:36;5.00;99.90
4828;DHT22;2428;48.732;9.148;2023-03-01T17:55:02;4.90;99.90
4828;DHT22;2428;48.732;9.148;2023-03-01T17:57:28;4.90;99.90
4828;DHT22;2428;48.732;9.148;2023-03-01T17:59:53;4.80;99.90
4828;DHT22;2428;48.732;9.148;2023-03-01T18:02:19;4.80;99.90
4828;DHT22;2428;48.732;9.148;2023-03-01T18:04:45;4.70;99.90
4828;DHT22;2428;48.732;9.148;2023-03-01T18:07:10;4.60;99.90
4828;DHT22;2428;48.732;9.148;2023-03-01T18:09:36;4.60;99.90
4828;DHT22;2428;48.732;9.148;2023-03-01T18:12:02;4.50;99.90
4828;DHT22;2428;48.732;9.148;2023-03-01T18:14:27;4.50;99.90
4828;DHT22;2428;48.732;9.148;2023-03-01T18:16:59;4.50;99.90
4828;DHT22;2428;48.732;9.148;2023-03-01T18:19:27;4.50;99.90
4828;DHT22;2428;48.732;9.148;2023-03-01T18:21:53;4.50;99.90
4828;DHT22;2428;48.732;9.148;2023-03-01T18:24:18;4.50;99.90
4828;DHT22;2428;48.732;9.148;2023-03-01T18:26:44;4.50;99.90
4828;DHT22;2428;48.732;9.148;2023-03-01T18:29:10;4.40;99.90
4828;DHT22;2428;48.732;9.148;2023-03-01T18:31:35;4.40;99.90
4828;DHT22;2428;48.732;9.148;2023-03-01T18:34:01;4.40;99.90
4828;DHT22;2428;48.732;9.148;2023-03-01T18:36:29;4.40;99.90
4828;DHT22;2428;48.732;9.148;2023-03-01T18:38:55;4.40;99.90
4828;DHT22;2428;48.732;9.148;2023-03-01T18:41:23;4.40;99.90
4828;DHT22;2428;48.732;9.148;2023-03-01T18:43:49;4.30;99.90